createdAt,value
2018-06-01T00:00:48.259Z,40.60
2018-06-01T00:03:15.968Z,35.43
2018-06-01T00:05:44.306Z,31.30
2018-06-01T00:08:11.985Z,32.37
2018-06-01T00:10:39.778Z,31.17
2018-06-01T00:13:08.499Z,36.80
2018-06-01T00:15:36.235Z,40.30
2018-06-01T00:18:04.833Z,40.50
2018-06-01T00:20:32.495Z,34.70
2018-06-01T00:23:00.279Z,36.10
2018-06-01T00:25:28.017Z,33.47
2018-06-01T00:27:56.437Z,43.47
2018-06-01T00:30:24.257Z,47.00
2018-06-01T00:32:52.602Z,46.20
2018-06-01T00:35:20.216Z,39.80
2018-06-01T00:37:47.951Z,35.90
2018-06-01T00:40:15.662Z,39.23
2018-06-01T00:42:43.501Z,39.10
2018-06-01T00:45:12.008Z,40.70
2018-06-01T00:47:39.681Z,35.40
2018-06-01T00:50:07.531Z,36.90
2018-06-01T00:52:35.149Z,44.00
2018-06-01T00:55:14.482Z,46.33
2018-06-01T00:57:42.049Z,30.33
2018-06-01T01:00:09.656Z,40.07
2018-06-01T01:02:37.599Z,40.47
2018-06-01T01:05:06.154Z,56.73
2018-06-01T01:07:33.915Z,63.33
2018-06-01T01:10:02.291Z,51.67
2018-06-01T01:12:29.809Z,47.73
2018-06-01T01:14:58.263Z,49.17
2018-06-01T01:17:25.997Z,36.67
2018-06-01T01:19:53.733Z,42.97
2018-06-01T01:22:21.365Z,46.10
2018-06-01T01:24:50.531Z,46.67
2018-06-01T01:27:18.255Z,40.97
2018-06-01T01:29:45.918Z,41.67
2018-06-01T01:32:14.542Z,42.37
2018-06-01T01:34:42.186Z,41.63
2018-06-01T01:37:09.720Z,38.40
2018-06-01T01:39:37.466Z,40.30
2018-06-01T01:42:05.946Z,49.30
2018-06-01T01:44:34.496Z,31.50
2018-06-01T01:47:02.954Z,41.27
2018-06-01T01:49:30.694Z,41.50
2018-06-01T01:51:59.072Z,60.80
2018-06-01T01:54:27.666Z,39.23
2018-06-01T01:56:55.447Z,29.70
2018-06-01T01:59:23.195Z,28.57
2018-06-01T02:01:50.974Z,45.67
2018-06-01T02:04:18.687Z,31.13
2018-06-01T02:06:46.454Z,37.83
2018-06-01T02:09:14.875Z,26.33
2018-06-01T02:11:42.920Z,33.13
2018-06-01T02:14:10.565Z,38.60
2018-06-01T02:16:38.272Z,35.63
2018-06-01T02:19:05.952Z,45.13
2018-06-01T02:21:33.704Z,54.47
2018-06-01T02:24:01.458Z,41.10
2018-06-01T02:26:29.980Z,54.30
2018-06-01T02:28:57.725Z,42.07
2018-06-01T02:31:25.401Z,45.83
2018-06-01T02:33:53.067Z,41.37
2018-06-01T02:36:20.773Z,41.53
2018-06-01T02:38:48.442Z,42.13
2018-06-01T02:41:16.218Z,45.37
2018-06-01T02:43:43.912Z,49.53
2018-06-01T02:46:11.778Z,37.17
2018-06-01T02:48:39.388Z,32.20
2018-06-01T02:51:07.599Z,34.70
2018-06-01T02:53:36.083Z,33.80
2018-06-01T02:56:04.734Z,45.63
2018-06-01T02:58:32.604Z,43.47
2018-06-01T03:01:00.218Z,45.37
2018-06-01T03:03:27.830Z,42.13
2018-06-01T03:05:55.746Z,50.63
2018-06-01T03:08:23.540Z,52.73
2018-06-01T03:10:51.906Z,49.10
2018-06-01T03:13:19.662Z,45.67
2018-06-01T03:15:47.359Z,40.53
2018-06-01T03:18:15.096Z,53.20
2018-06-01T03:20:43.951Z,61.83
2018-06-01T03:23:12.487Z,52.20
2018-06-01T03:25:40.224Z,50.60
2018-06-01T03:28:08.957Z,47.23
2018-06-01T03:30:36.498Z,55.20
2018-06-01T03:33:04.726Z,43.70
2018-06-01T03:35:32.544Z,42.60
2018-06-01T03:38:00.380Z,37.23
2018-06-01T03:40:28.764Z,41.47
2018-06-01T03:42:57.396Z,41.10
2018-06-01T03:45:25.284Z,57.93
2018-06-01T03:47:53.041Z,35.00
2018-06-01T03:50:20.766Z,35.43
2018-06-01T03:52:48.898Z,40.23
2018-06-01T03:55:16.541Z,33.00
2018-06-01T03:57:44.241Z,34.50
2018-06-01T04:00:12.946Z,37.80
2018-06-01T04:02:40.855Z,33.20
2018-06-01T04:05:08.552Z,44.80
2018-06-01T04:07:37.062Z,45.13
2018-06-01T04:10:04.642Z,41.83
2018-06-01T04:12:32.622Z,31.60
2018-06-01T04:15:01.072Z,41.33
2018-06-01T04:17:29.294Z,47.87
2018-06-01T04:19:57.236Z,38.87
2018-06-01T04:22:24.952Z,41.17
2018-06-01T04:24:53.007Z,37.73
2018-06-01T04:27:21.257Z,51.13
2018-06-01T04:29:49.497Z,42.07
2018-06-01T04:32:18.137Z,36.00
2018-06-01T04:34:46.740Z,40.47
2018-06-01T04:37:14.719Z,53.73
2018-06-01T04:39:42.495Z,49.23
2018-06-01T04:42:12.039Z,56.87
2018-06-01T04:44:40.127Z,133.67
2018-06-01T04:47:07.817Z,80.47
2018-06-01T04:49:35.949Z,78.47
2018-06-01T04:52:04.076Z,72.63
2018-06-01T04:54:32.738Z,65.43
2018-06-01T04:57:00.693Z,53.20
2018-06-01T04:59:29.133Z,53.00
2018-06-01T05:01:58.325Z,57.00
2018-06-01T05:04:27.377Z,77.37
2018-06-01T05:06:55.788Z,61.50
2018-06-01T05:09:24.347Z,39.30
2018-06-01T05:11:52.785Z,33.13
2018-06-01T05:14:21.471Z,62.20
2018-06-01T05:16:50.545Z,65.73
2018-06-01T05:19:18.907Z,35.30
2018-06-01T05:21:47.454Z,27.83
2018-06-01T05:24:15.697Z,28.43
2018-06-01T05:26:46.635Z,19.80
2018-06-01T05:29:14.788Z,28.93
2018-06-01T05:31:42.907Z,36.07
2018-06-01T05:34:12.101Z,73.80
2018-06-01T05:36:41.091Z,42.23
2018-06-01T05:39:10.081Z,68.37
2018-06-01T05:41:39.139Z,63.47
2018-06-01T05:44:07.127Z,56.50
2018-06-01T05:46:35.157Z,36.17
2018-06-01T05:49:03.064Z,37.50
2018-06-01T05:51:31.257Z,21.43
2018-06-01T05:53:59.835Z,23.10
2018-06-01T05:56:27.636Z,25.17
2018-06-01T05:58:55.765Z,15.53
2018-06-01T06:01:23.825Z,30.50
2018-06-01T06:03:51.997Z,16.30
2018-06-01T06:06:20.019Z,56.37
2018-06-01T06:08:48.857Z,38.57
2018-06-01T06:11:16.993Z,44.30
2018-06-01T06:13:45.109Z,20.80
2018-06-01T06:16:13.279Z,20.33
2018-06-01T06:18:41.413Z,24.70
2018-06-01T06:21:10.256Z,28.17
2018-06-01T06:23:37.975Z,9.43
2018-06-01T06:26:06.047Z,11.27
2018-06-01T06:28:33.658Z,23.93
2018-06-01T06:31:01.943Z,29.57
2018-06-01T06:33:30.080Z,16.20
2018-06-01T06:35:57.747Z,24.03
2018-06-01T06:38:25.555Z,21.67
2018-06-01T06:40:53.894Z,19.37
2018-06-01T06:43:21.907Z,15.87
2018-06-01T06:45:49.721Z,65.90
2018-06-01T06:48:17.781Z,20.83
2018-06-01T06:50:45.904Z,37.83
2018-06-01T06:53:13.789Z,47.50
2018-06-01T06:55:41.909Z,35.27
2018-06-01T06:58:09.495Z,26.77
2018-06-01T07:00:37.583Z,29.63
2018-06-01T07:03:05.366Z,20.97
2018-06-01T07:05:33.766Z,14.43
2018-06-01T07:08:02.451Z,19.03
2018-06-01T07:10:31.349Z,37.77
2018-06-01T07:13:00.039Z,20.77
2018-06-01T07:15:28.863Z,21.03
2018-06-01T07:17:56.565Z,18.70
2018-06-01T07:20:24.510Z,42.10
2018-06-01T07:22:52.407Z,31.13
2018-06-01T07:25:20.562Z,27.20
2018-06-01T07:27:49.085Z,25.77
2018-06-01T07:30:17.064Z,21.30
2018-06-01T07:32:45.736Z,56.77
2018-06-01T07:35:13.487Z,20.70
2018-06-01T07:37:41.106Z,31.20
2018-06-01T07:40:08.741Z,60.53
2018-06-01T07:42:37.047Z,25.97
2018-06-01T07:45:04.596Z,24.17
2018-06-01T07:47:32.194Z,15.10
2018-06-01T07:49:59.725Z,10.57
2018-06-01T07:52:27.259Z,13.83
2018-06-01T07:54:55.567Z,27.87
2018-06-01T07:57:23.172Z,13.17
2018-06-01T07:59:50.743Z,16.20
2018-06-01T08:02:18.297Z,13.50
2018-06-01T08:04:46.665Z,13.93
2018-06-01T08:07:14.229Z,9.90
2018-06-01T08:09:41.789Z,11.10
2018-06-01T08:12:09.377Z,25.80
2018-06-01T08:14:37.750Z,19.00
2018-06-01T08:17:05.279Z,11.70
2018-06-01T08:19:32.855Z,15.60
2018-06-01T08:22:00.351Z,32.83
2018-06-01T08:24:28.664Z,22.20
2018-06-01T08:26:56.212Z,10.33
2018-06-01T08:29:23.710Z,8.47
2018-06-01T08:31:51.237Z,9.77
2018-06-01T08:34:18.760Z,10.73
2018-06-01T08:36:47.091Z,18.90
2018-06-01T08:39:14.616Z,9.67
2018-06-01T08:41:42.923Z,14.40
2018-06-01T08:44:10.622Z,11.60
2018-06-01T08:46:38.186Z,13.67
2018-06-01T08:49:05.706Z,9.13
2018-06-01T08:51:33.233Z,18.03
2018-06-01T08:54:00.774Z,12.03
2018-06-01T08:56:28.260Z,10.47
2018-06-01T08:58:56.583Z,17.00
2018-06-01T09:01:24.171Z,12.60
2018-06-01T09:03:51.780Z,18.90
2018-06-01T09:06:19.356Z,13.50
2018-06-01T09:08:46.890Z,8.73
2018-06-01T09:11:14.482Z,9.20
2018-06-01T09:13:42.034Z,11.40
2018-06-01T09:16:09.572Z,9.50
2018-06-01T09:18:37.169Z,16.93
2018-06-01T09:21:04.811Z,15.23
2018-06-01T09:23:32.416Z,16.70
2018-06-01T09:25:59.957Z,15.80
2018-06-01T09:28:27.949Z,12.33
2018-06-01T09:30:55.467Z,12.87
2018-06-01T09:33:23.036Z,7.57
2018-06-01T09:35:50.594Z,13.53
2018-06-01T09:38:18.111Z,11.03
2018-06-01T09:40:46.364Z,12.70
2018-06-01T09:43:13.855Z,8.17
2018-06-01T09:45:42.113Z,10.47
2018-06-01T09:48:09.636Z,9.00
2018-06-01T09:50:37.172Z,7.00
2018-06-01T09:53:04.722Z,8.90
2018-06-01T09:55:33.057Z,11.00
2018-06-01T09:58:00.549Z,8.40
2018-06-01T10:00:34.799Z,11.33
2018-06-01T10:03:02.322Z,8.60
2018-06-01T10:05:30.654Z,9.90
2018-06-01T10:07:58.147Z,7.47
2018-06-01T10:10:31.507Z,9.57
2018-06-01T10:12:59.170Z,11.13
2018-06-01T10:15:26.699Z,16.07
2018-06-01T10:17:54.996Z,6.90
2018-06-01T10:20:22.517Z,9.90
2018-06-01T10:22:51.619Z,5.80
2018-06-01T10:25:19.941Z,10.90
2018-06-01T10:27:47.517Z,9.17
2018-06-01T10:30:15.044Z,5.20
2018-06-01T10:32:42.585Z,10.17
2018-06-01T10:35:10.949Z,16.30
2018-06-01T10:37:38.481Z,12.90
2018-06-01T10:40:06.072Z,6.53
2018-06-01T10:42:33.891Z,8.07
2018-06-01T10:45:01.457Z,11.10
2018-06-01T10:47:29.023Z,19.43
2018-06-01T10:49:56.567Z,6.00
2018-06-01T10:52:24.143Z,5.00
2018-06-01T10:54:51.677Z,13.67
2018-06-01T10:57:19.189Z,7.00
2018-06-01T10:59:46.731Z,9.50
2018-06-01T11:02:14.300Z,7.17
2018-06-01T11:04:41.858Z,9.67
2018-06-01T11:07:09.393Z,9.63
2018-06-01T11:09:36.940Z,13.10
2018-06-01T11:12:04.482Z,8.93
2018-06-01T11:14:32.873Z,8.83
2018-06-01T11:17:00.369Z,34.73
2018-06-01T11:19:27.895Z,5.30
2018-06-01T11:21:56.187Z,16.07
2018-06-01T11:24:23.736Z,12.03
2018-06-01T11:26:51.287Z,5.57
2018-06-01T11:29:19.612Z,9.33
2018-06-01T11:31:47.136Z,31.27
2018-06-01T11:34:14.701Z,29.07
2018-06-01T11:36:42.228Z,37.50
2018-06-01T11:39:09.761Z,26.33
2018-06-01T11:41:37.422Z,7.90
2018-06-01T11:44:05.014Z,3.87
2018-06-01T11:46:32.600Z,23.40
2018-06-01T11:49:00.894Z,4.90
2018-06-01T11:51:28.564Z,5.63
2018-06-01T11:53:56.218Z,14.97
2018-06-01T11:56:23.800Z,18.77
2018-06-01T11:58:51.422Z,4.30
2018-06-01T12:01:19.736Z,24.93
2018-06-01T12:03:47.296Z,27.23
2018-06-01T12:06:14.920Z,25.80
2018-06-01T12:08:43.344Z,12.90
2018-06-01T12:11:10.935Z,9.47
2018-06-01T12:13:38.522Z,10.07
2018-06-01T12:16:06.887Z,37.20
2018-06-01T12:18:34.498Z,39.73
2018-06-01T12:21:02.088Z,20.90
2018-06-01T12:23:29.696Z,49.03
2018-06-01T12:25:58.108Z,70.53
2018-06-01T12:28:25.644Z,13.43
2018-06-01T12:30:54.015Z,12.93
2018-06-01T12:33:22.410Z,5.53
2018-06-01T12:35:50.272Z,8.47
2018-06-01T12:38:17.909Z,7.70
2018-06-01T12:40:45.905Z,14.90
2018-06-01T12:43:14.230Z,38.67
2018-06-01T12:45:41.785Z,43.70
2018-06-01T12:48:09.442Z,31.60
2018-06-01T12:50:37.503Z,22.17
2018-06-01T12:53:05.156Z,25.23
2018-06-01T12:55:32.741Z,19.93
2018-06-01T12:58:01.067Z,23.60
2018-06-01T13:00:29.451Z,5.83
2018-06-01T13:02:57.802Z,10.40
2018-06-01T13:05:26.182Z,9.43
2018-06-01T13:07:53.903Z,19.97
2018-06-01T13:10:21.503Z,35.93
2018-06-01T13:12:49.208Z,56.57
2018-06-01T13:15:17.618Z,19.60
2018-06-01T13:17:45.263Z,36.23
2018-06-01T13:20:13.618Z,35.63
2018-06-01T13:22:41.148Z,55.43
2018-06-01T13:25:08.791Z,38.67
2018-06-01T13:27:36.402Z,40.20
2018-06-01T13:30:04.027Z,54.93
2018-06-01T13:32:31.630Z,15.33
2018-06-01T13:34:59.230Z,19.40
2018-06-01T13:37:26.824Z,20.33
2018-06-01T13:39:54.400Z,16.20
2018-06-01T13:42:22.023Z,19.73
2018-06-01T13:44:49.669Z,23.07
2018-06-01T13:47:17.294Z,38.33
2018-06-01T13:49:44.858Z,23.47
2018-06-01T13:52:12.421Z,10.97
2018-06-01T13:54:39.945Z,8.10
2018-06-01T13:57:07.455Z,6.57
2018-06-01T13:59:35.793Z,11.53
2018-06-01T14:02:03.976Z,10.20
2018-06-01T14:04:31.677Z,10.73
2018-06-01T14:07:00.096Z,16.43
2018-06-01T14:09:27.769Z,8.23
2018-06-01T14:11:56.066Z,14.10
2018-06-01T14:14:23.713Z,6.77
2018-06-01T14:16:51.291Z,12.13
2018-06-01T14:19:18.876Z,10.53
2018-06-01T14:21:47.283Z,7.10
2018-06-01T14:24:14.852Z,8.87
2018-06-01T14:26:42.426Z,9.03
2018-06-01T14:29:10.151Z,8.17
2018-06-01T14:31:38.437Z,9.47
2018-06-01T14:34:06.041Z,9.47
2018-06-01T14:36:33.689Z,12.93
2018-06-01T14:39:01.287Z,13.70
2018-06-01T14:41:28.804Z,13.43
2018-06-01T14:43:56.315Z,7.97
2018-06-01T14:46:23.871Z,8.10
2018-06-01T14:48:51.442Z,9.20
2018-06-01T14:51:19.007Z,15.77
2018-06-01T14:53:46.545Z,9.70
2018-06-01T14:56:14.112Z,7.53
2018-06-01T14:58:41.870Z,20.33
2018-06-01T15:01:10.502Z,9.13
2018-06-01T15:03:38.254Z,6.17
2018-06-01T15:06:07.135Z,9.00
2018-06-01T15:08:34.799Z,8.13
2018-06-01T15:11:02.626Z,10.30
2018-06-01T15:13:30.627Z,7.13
2018-06-01T15:15:58.440Z,14.00
2018-06-01T15:18:26.515Z,19.43
2018-06-01T15:20:54.149Z,10.20
2018-06-01T15:23:23.097Z,13.20
2018-06-01T15:25:50.985Z,7.93
2018-06-01T15:28:21.573Z,10.93
2018-06-01T15:30:49.313Z,11.10
2018-06-01T15:33:17.726Z,6.93
2018-06-01T15:35:45.371Z,9.17
2018-06-01T15:38:26.906Z,6.97
2018-06-01T15:40:54.888Z,7.83
2018-06-01T15:43:23.564Z,7.10
2018-06-01T15:45:51.688Z,7.83
2018-06-01T15:48:19.437Z,7.63
2018-06-01T15:50:47.857Z,5.97
2018-06-01T15:53:16.367Z,6.33
2018-06-01T15:55:44.169Z,13.13
2018-06-01T15:58:13.145Z,8.57
2018-06-01T16:00:42.262Z,11.17
2018-06-01T16:03:11.711Z,6.70
2018-06-01T16:05:39.597Z,7.73
2018-06-01T16:08:10.100Z,7.50
2018-06-01T16:10:39.393Z,5.97
2018-06-01T16:13:08.581Z,16.20
2018-06-01T16:15:36.617Z,6.07
2018-06-01T16:18:05.014Z,7.03
2018-06-01T16:20:32.601Z,8.90
2018-06-01T16:25:55.959Z,5.80
2018-06-01T16:28:24.115Z,6.97
2018-06-01T16:30:52.038Z,17.37
2018-06-01T16:33:19.679Z,7.93
2018-06-01T16:35:47.352Z,10.77
2018-06-01T16:38:15.723Z,6.80
2018-06-01T16:40:44.317Z,6.73
2018-06-01T16:43:12.663Z,9.40
2018-06-01T16:45:40.283Z,6.10
2018-06-01T16:48:07.930Z,8.37
2018-06-01T16:50:36.336Z,6.30
2018-06-01T16:53:03.976Z,12.50
2018-06-01T16:55:32.323Z,6.00
2018-06-01T16:57:59.942Z,7.93
2018-06-01T17:00:27.566Z,8.73
2018-06-01T17:02:55.401Z,8.50
2018-06-01T17:05:23.017Z,9.40
2018-06-01T17:07:52.688Z,5.63
2018-06-01T17:10:21.388Z,10.50
2018-06-01T17:12:49.555Z,6.57
2018-06-01T17:15:17.346Z,7.87
2018-06-01T17:17:45.814Z,7.37
2018-06-01T17:20:13.322Z,6.67
2018-06-01T17:22:41.406Z,6.97
2018-06-01T17:25:09.716Z,6.30
2018-06-01T17:27:37.362Z,5.63
2018-06-01T17:30:06.110Z,15.77
2018-06-01T17:32:34.576Z,4.37
2018-06-01T17:35:03.152Z,8.83
2018-06-01T17:37:31.562Z,6.40
2018-06-01T17:39:59.241Z,5.73
2018-06-01T17:42:26.780Z,6.10
2018-06-01T17:44:54.420Z,5.93
2018-06-01T17:47:23.370Z,7.00
2018-06-01T17:49:51.786Z,5.70
2018-06-01T17:52:19.426Z,5.10
2018-06-01T17:54:47.131Z,6.00
2018-06-01T17:57:15.710Z,9.20
2018-06-01T17:59:50.200Z,5.27
2018-06-01T18:02:17.857Z,5.67
2018-06-01T18:04:45.521Z,6.43
2018-06-01T18:07:13.284Z,6.80
2018-06-01T18:09:41.992Z,5.73
2018-06-01T18:12:09.748Z,4.77
2018-06-01T18:14:38.351Z,14.33
2018-06-01T18:17:06.704Z,10.00
2018-06-01T18:19:34.344Z,3.73
2018-06-01T18:22:01.950Z,12.37
2018-06-01T18:24:29.600Z,7.00
2018-06-01T18:26:57.430Z,5.97
2018-06-01T18:29:24.993Z,6.77
2018-06-01T18:31:52.626Z,9.40
2018-06-01T18:34:20.944Z,7.10
2018-06-01T18:36:48.608Z,5.13
2018-06-01T18:39:16.231Z,6.20
2018-06-01T18:41:44.606Z,39.77
2018-06-01T18:44:12.943Z,5.77
2018-06-01T18:46:40.530Z,7.33
2018-06-01T18:49:08.111Z,6.60
2018-06-01T18:51:36.481Z,8.10
2018-06-01T18:54:04.064Z,6.70
2018-06-01T18:56:32.456Z,11.53
2018-06-01T18:59:00.032Z,11.07
2018-06-01T19:01:27.619Z,11.97
2018-06-01T19:03:55.330Z,8.13
2018-06-01T19:06:22.972Z,8.70
2018-06-01T19:08:50.505Z,8.37
2018-06-01T19:11:18.160Z,8.90
2018-06-01T19:13:45.702Z,7.17
2018-06-01T19:16:14.277Z,6.20
2018-06-01T19:18:41.835Z,8.63
2018-06-01T19:21:09.521Z,7.27
2018-06-01T19:23:37.045Z,6.00
2018-06-01T19:26:04.676Z,6.10
2018-06-01T19:28:32.321Z,8.63
2018-06-01T19:30:59.897Z,8.73
2018-06-01T19:33:27.538Z,5.80
2018-06-01T19:35:55.166Z,10.27
2018-06-01T19:38:22.732Z,6.93
2018-06-01T19:40:51.032Z,7.30
2018-06-01T19:43:18.604Z,11.00
2018-06-01T19:45:46.189Z,8.13
2018-06-01T19:48:13.785Z,9.30
2018-06-01T19:50:42.214Z,5.30
2018-06-01T19:53:09.918Z,7.83
2018-06-01T19:55:38.382Z,6.53
2018-06-01T19:58:05.886Z,10.00
2018-06-01T20:00:33.584Z,7.73
2018-06-01T20:03:01.220Z,7.20
2018-06-01T20:05:28.789Z,8.40
2018-06-01T20:07:56.355Z,9.40
2018-06-01T20:10:23.964Z,7.23
2018-06-01T20:12:52.436Z,8.47
2018-06-01T20:15:20.847Z,12.23
2018-06-01T20:17:49.213Z,8.70
2018-06-01T20:20:17.573Z,7.37
2018-06-01T20:22:45.177Z,6.70
2018-06-01T20:25:12.790Z,7.93
2018-06-01T20:27:40.382Z,12.70
2018-06-01T20:30:08.682Z,17.63
2018-06-01T20:32:36.294Z,9.93
2018-06-01T20:35:03.901Z,13.20
2018-06-01T20:37:31.498Z,8.80
2018-06-01T20:39:59.070Z,10.93
2018-06-01T20:42:27.560Z,9.00
2018-06-01T20:44:55.318Z,8.10
2018-06-01T20:47:22.815Z,11.70
2018-06-01T20:49:51.135Z,10.30
2018-06-01T20:52:18.958Z,7.60
2018-06-01T20:54:46.579Z,13.17
2018-06-01T20:57:14.105Z,13.20
2018-06-01T20:59:42.005Z,9.70
2018-06-01T21:02:10.828Z,8.00
2018-06-01T21:04:39.885Z,9.80
2018-06-01T21:07:08.533Z,16.00
2018-06-01T21:09:36.984Z,14.43
2018-06-01T21:12:04.593Z,10.33
2018-06-01T21:14:33.023Z,11.23
2018-06-01T21:17:03.463Z,8.70
2018-06-01T21:19:31.904Z,11.83
2018-06-01T21:22:00.216Z,10.17
2018-06-01T21:24:28.518Z,14.63
2018-06-01T21:26:56.119Z,10.07
2018-06-01T21:29:23.694Z,8.00
2018-06-01T21:31:52.373Z,11.03
2018-06-01T21:34:21.368Z,9.27
2018-06-01T21:36:48.925Z,12.30
2018-06-01T21:39:16.463Z,10.40
2018-06-01T21:44:38.181Z,7.40
2018-06-01T21:47:05.953Z,11.77
2018-06-01T21:49:34.589Z,10.23
2018-06-01T21:52:03.739Z,8.50
2018-06-01T21:54:32.225Z,8.20
2018-06-01T21:57:00.920Z,8.33
2018-06-01T21:59:28.497Z,17.63
2018-06-01T22:01:56.091Z,9.73
2018-06-01T22:04:23.921Z,14.10
2018-06-01T22:06:51.489Z,11.40
2018-06-01T22:09:19.102Z,12.47
2018-06-01T22:11:47.481Z,9.10
2018-06-01T22:14:15.205Z,10.90
2018-06-01T22:16:42.855Z,10.17
2018-06-01T22:19:10.422Z,11.30
2018-06-01T22:21:37.965Z,10.23
2018-06-01T22:24:06.323Z,9.83
2018-06-01T22:26:33.892Z,11.23
2018-06-01T22:29:01.459Z,16.50
2018-06-01T22:31:29.797Z,11.00
2018-06-01T22:33:58.265Z,10.30
2018-06-01T22:36:25.831Z,12.97
2018-06-01T22:38:53.449Z,17.20
2018-06-01T22:41:21.085Z,17.23
2018-06-01T22:43:48.684Z,13.33
2018-06-01T22:46:17.014Z,14.37
2018-06-01T22:48:44.712Z,15.43
2018-06-01T22:51:13.096Z,12.10
2018-06-01T22:53:41.499Z,11.93
2018-06-01T22:56:09.091Z,8.50
2018-06-01T22:58:37.391Z,10.47
2018-06-01T23:01:05.005Z,16.97
2018-06-01T23:03:32.555Z,8.87
2018-06-01T23:06:00.987Z,11.93
2018-06-01T23:08:28.621Z,18.50
2018-06-01T23:10:56.183Z,7.53
2018-06-01T23:13:23.784Z,23.03
2018-06-01T23:15:51.339Z,15.57
2018-06-01T23:18:18.910Z,12.00
2018-06-01T23:20:46.449Z,18.90
2018-06-01T23:23:13.994Z,17.43
2018-06-01T23:25:41.550Z,13.30
2018-06-01T23:28:09.145Z,12.00
2018-06-01T23:30:36.714Z,15.23
2018-06-01T23:33:04.415Z,14.07
2018-06-01T23:35:32.754Z,10.60
2018-06-01T23:38:00.323Z,11.83
2018-06-01T23:40:27.874Z,18.33
2018-06-01T23:42:55.585Z,12.87
2018-06-01T23:45:23.129Z,15.23
2018-06-01T23:47:56.646Z,13.73
2018-06-01T23:50:24.226Z,16.43
2018-06-01T23:52:52.045Z,15.40
2018-06-01T23:55:25.958Z,12.90
2018-06-01T23:57:54.517Z,12.60
